Time;durP1;ratioP1;P1;durP2;ratioP2;P2;SDS_P1;SDS_P2;PMS_P1;PMS_P2;Temp;Humidity;BMP_temperature;BMP_pressure;BME280_temperature;BME280_humidity;BME280_pressure;Samples;Min_cycle;Max_cycle;Signal;HPM_P1;HPM_P2
2022/11/12 00:01:57;;;;;;;11.93;8.77;;;;;;;;;;5065279;28;20197;-70
2022/11/12 00:04:24;;;;;;;10.88;8.77;;;;;;;;;;5064891;28;20197;-70
2022/11/12 00:06:50;;;;;;;9.95;8.95;;;;;;;;;;5064761;28;20271;-70
2022/11/12 00:09:17;;;;;;;10.93;9.43;;;;;;;;;;5064570;28;20193;-70
2022/11/12 00:11:43;;;;;;;10.93;9.27;;;;;;;;;;5064658;28;20204;-70
2022/11/12 00:14:09;;;;;;;12.13;9.45;;;;;;;;;;5064615;28;20497;-70
2022/11/12 00:16:36;;;;;;;13.63;9.85;;;;;;;;;;5064351;28;20204;-70
2022/11/12 00:19:02;;;;;;;13.00;10.13;;;;;;;;;;5064258;28;20217;-70
2022/11/12 00:21:30;;;;;;;14.73;10.68;;;;;;;;;;5064976;28;20197;-70
2022/11/12 00:23:56;;;;;;;13.63;9.93;;;;;;;;;;5064629;28;20198;-70
2022/11/12 00:26:22;;;;;;;13.90;10.80;;;;;;;;;;5064277;28;20196;-70
2022/11/12 00:28:48;;;;;;;13.93;9.65;;;;;;;;;;5063979;28;20217;-70
2022/11/12 00:31:15;;;;;;;11.43;9.88;;;;;;;;;;5064067;28;20197;-70
2022/11/12 00:33:41;;;;;;;13.50;10.02;;;;;;;;;;5064353;28;20197;-70
2022/11/12 00:36:08;;;;;;;11.68;9.95;;;;;;;;;;5064078;28;20205;-70
2022/11/12 00:38:36;;;;;;;13.73;10.55;;;;;;;;;;5063899;28;20197;-70
2022/11/12 00:41:02;;;;;;;13.60;10.55;;;;;;;;;;5064023;28;20217;-70
2022/11/12 00:43:28;;;;;;;13.02;10.77;;;;;;;;;;5063934;28;20196;-70
2022/11/12 00:45:55;;;;;;;18.73;11.32;;;;;;;;;;5063921;28;20396;-70
2022/11/12 00:48:21;;;;;;;20.63;12.68;;;;;;;;;;5063951;28;20522;-70
2022/11/12 00:50:47;;;;;;;17.17;13.02;;;;;;;;;;5063988;28;20197;-70
2022/11/12 00:53:14;;;;;;;17.75;11.98;;;;;;;;;;5063870;28;20395;-70
2022/11/12 00:55:41;;;;;;;14.02;11.27;;;;;;;;;;5063856;28;20196;-70
2022/11/12 00:58:08;;;;;;;17.15;11.43;;;;;;;;;;5063316;28;20197;-70
2022/11/12 01:00:34;;;;;;;18.02;12.77;;;;;;;;;;5063779;28;20411;-70
2022/11/12 01:03:00;;;;;;;19.90;13.63;;;;;;;;;;5063807;28;20204;-70
2022/11/12 01:05:26;;;;;;;20.73;13.38;;;;;;;;;;5063643;28;20212;-70
2022/11/12 01:07:53;;;;;;;16.92;13.52;;;;;;;;;;5063343;28;20396;-70
2022/11/12 01:10:19;;;;;;;16.63;12.30;;;;;;;;;;5063663;28;20200;-70
2022/11/12 01:12:47;;;;;;;17.80;12.02;;;;;;;;;;5063442;28;20217;-70
2022/11/12 01:15:13;;;;;;;11.98;10.77;;;;;;;;;;5063473;28;20204;-70
2022/11/12 01:17:39;;;;;;;12.57;10.02;;;;;;;;;;5063091;28;20213;-70
2022/11/12 01:20:06;;;;;;;11.98;9.38;;;;;;;;;;5063102;28;20225;-70
2022/11/12 01:22:32;;;;;;;11.98;10.18;;;;;;;;;;5063203;28;20197;-70
2022/11/12 01:24:59;;;;;;;11.40;9.55;;;;;;;;;;5063225;28;20396;-70
2022/11/12 01:27:25;;;;;;;11.05;9.77;;;;;;;;;;5062919;28;20217;-70
2022/11/12 01:29:52;;;;;;;10.93;9.77;;;;;;;;;;5063327;28;20420;-70
2022/11/12 01:32:19;;;;;;;10.65;9.55;;;;;;;;;;5063084;28;20197;-70
2022/11/12 01:34:45;;;;;;;10.43;9.32;;;;;;;;;;5063225;28;20197;-70
2022/11/12 01:37:11;;;;;;;12.25;9.40;;;;;;;;;;5062403;28;20520;-70
2022/11/12 01:39:38;;;;;;;12.13;9.00;;;;;;;;;;5062630;28;20224;-70
2022/11/12 01:42:04;;;;;;;9.52;8.63;;;;;;;;;;5062737;28;20524;-70
2022/11/12 01:44:31;;;;;;;13.27;9.13;;;;;;;;;;5063005;28;20197;-70
2022/11/12 01:47:01;;;;;;;12.38;9.55;;;;;;;;;;5062965;28;20197;-70
2022/11/12 01:49:31;;;;;;;11.43;9.85;;;;;;;;;;5062562;28;20201;-70
2022/11/12 01:51:59;;;;;;;11.98;9.35;;;;;;;;;;5063181;28;20203;-70
2022/11/12 01:54:26;;;;;;;10.63;9.18;;;;;;;;;;5062588;28;20204;-70
2022/11/12 01:56:52;;;;;;;12.55;10.48;;;;;;;;;;5062689;28;20526;-70
2022/11/12 01:59:22;;;;;;;14.05;9.90;;;;;;;;;;5062475;28;20205;-70
2022/11/12 02:01:48;;;;;;;15.60;10.45;;;;;;;;;;5062553;28;20384;-70
2022/11/12 02:04:16;;;;;;;13.05;9.63;;;;;;;;;;5062561;28;20193;-70
2022/11/12 02:06:43;;;;;;;19.17;10.20;;;;;;;;;;5062301;28;20535;-70
2022/11/12 02:09:09;;;;;;;11.60;10.15;;;;;;;;;;5061992;28;20204;-70
2022/11/12 02:11:36;;;;;;;14.02;10.07;;;;;;;;;;5062362;28;20193;-70
2022/11/12 02:14:07;;;;;;;17.85;10.35;;;;;;;;;;5062217;28;20387;-70
2022/11/12 02:16:35;;;;;;;12.63;9.75;;;;;;;;;;5061517;28;20236;-70
2022/11/12 02:19:01;;;;;;;15.38;8.80;;;;;;;;;;5061870;28;20219;-70
2022/11/12 02:21:29;;;;;;;18.30;9.60;;;;;;;;;;5062208;28;20217;-70
2022/11/12 02:23:59;;;;;;;11.13;9.70;;;;;;;;;;5062298;28;20219;-70
2022/11/12 02:26:26;;;;;;;9.82;8.75;;;;;;;;;;5062074;28;20197;-70
2022/11/12 02:28:52;;;;;;;10.75;8.13;;;;;;;;;;5061675;28;20225;-70
2022/11/12 02:31:18;;;;;;;9.38;8.48;;;;;;;;;;5062035;28;20201;-70
2022/11/12 02:33:45;;;;;;;9.02;7.95;;;;;;;;;;5062247;28;20197;-70
2022/11/12 02:36:11;;;;;;;13.05;8.80;;;;;;;;;;5062028;28;20535;-70
2022/11/12 02:38:39;;;;;;;11.88;8.55;;;;;;;;;;5061807;28;20197;-70
2022/11/12 02:41:05;;;;;;;9.88;8.88;;;;;;;;;;5061794;28;20224;-70
2022/11/12 02:43:31;;;;;;;9.27;8.27;;;;;;;;;;5061809;28;20399;-70
2022/11/12 02:45:58;;;;;;;8.52;7.63;;;;;;;;;;5061963;28;20383;-70
2022/11/12 02:48:24;;;;;;;9.23;8.43;;;;;;;;;;5060898;28;20204;-70
2022/11/12 02:50:50;;;;;;;8.90;8.10;;;;;;;;;;5061722;28;20373;-70
2022/11/12 02:53:17;;;;;;;9.20;8.18;;;;;;;;;;5062111;28;20196;-70
2022/11/12 02:55:44;;;;;;;10.10;8.55;;;;;;;;;;5061693;28;20204;-70
2022/11/12 02:58:11;;;;;;;10.70;8.48;;;;;;;;;;5061336;28;20197;-70
2022/11/12 03:00:37;;;;;;;8.93;8.02;;;;;;;;;;5061680;28;20223;-70
2022/11/12 03:03:03;;;;;;;9.75;8.68;;;;;;;;;;5061710;28;20496;-70
2022/11/12 03:05:30;;;;;;;9.50;8.50;;;;;;;;;;5061656;28;20189;-70
2022/11/12 03:07:58;;;;;;;9.20;8.25;;;;;;;;;;5061567;28;20360;-70
2022/11/12 03:10:24;;;;;;;10.55;8.77;;;;;;;;;;5061551;28;20197;-70
2022/11/12 03:12:52;;;;;;;9.95;8.35;;;;;;;;;;5061504;28;20707;-70
2022/11/12 03:15:18;;;;;;;14.20;8.75;;;;;;;;;;5061690;28;20501;-70
2022/11/12 03:17:44;;;;;;;10.65;9.07;;;;;;;;;;5061442;28;20197;-70
2022/11/12 03:20:11;;;;;;;10.07;8.80;;;;;;;;;;5061348;28;20229;-70
2022/11/12 03:22:37;;;;;;;8.75;7.90;;;;;;;;;;5061987;28;20503;-70
2022/11/12 03:25:04;;;;;;;9.13;7.70;;;;;;;;;;5061448;28;20523;-70
2022/11/12 03:27:30;;;;;;;9.30;8.40;;;;;;;;;;5061276;28;20217;-70
2022/11/12 03:29:58;;;;;;;13.52;7.70;;;;;;;;;;5061527;28;20193;-70
2022/11/12 03:32:24;;;;;;;9.20;7.65;;;;;;;;;;5061277;28;20205;-70
2022/11/12 03:34:51;;;;;;;11.70;7.85;;;;;;;;;;5061472;28;20207;-70
2022/11/12 03:37:17;;;;;;;7.30;6.57;;;;;;;;;;5061335;28;20198;-70
2022/11/12 03:39:43;;;;;;;8.38;7.57;;;;;;;;;;5061015;28;20425;-70
2022/11/12 03:42:10;;;;;;;8.32;7.43;;;;;;;;;;5061512;28;20205;-70
2022/11/12 03:44:36;;;;;;;14.15;7.72;;;;;;;;;;5061348;28;20469;-70
2022/11/12 03:47:03;;;;;;;9.55;7.28;;;;;;;;;;5061357;28;20433;-70
2022/11/12 03:49:30;;;;;;;7.20;6.60;;;;;;;;;;5060864;28;20201;-70
2022/11/12 03:51:56;;;;;;;8.20;7.50;;;;;;;;;;5061281;28;20197;-70
2022/11/12 03:54:22;;;;;;;13.98;8.50;;;;;;;;;;5061086;28;20197;-70
2022/11/12 03:56:49;;;;;;;10.95;7.32;;;;;;;;;;5061420;28;20365;-70
2022/11/12 03:59:15;;;;;;;8.00;7.20;;;;;;;;;;5061737;28;20205;-70
2022/11/12 04:01:41;;;;;;;9.15;8.27;;;;;;;;;;5065593;28;20251;-70
2022/11/12 04:04:10;;;;;;;9.38;8.48;;;;;;;;;;5064852;28;20203;-70
2022/11/12 04:09:31;;;;;;;8.88;7.97;;;;;;;;;;5022664;28;20217;-70
2022/11/12 04:13:26;;;;;;;14.75;8.38;;;;;;;;;;5054343;28;20534;-70
2022/11/12 04:14:43;;;;;;;8.13;7.38;;;;;;;;;;5064348;28;20201;-70
2022/11/12 04:22:39;;;;;;;8.38;7.40;;;;;;;;;;5064521;28;20232;-70
2022/11/12 04:27:49;;;;;;;9.13;7.28;;;;;;;;;;5063986;28;20216;-70
2022/11/12 04:30:18;;;;;;;11.88;7.07;;;;;;;;;;5064346;28;20201;-70
2022/11/12 04:32:47;;;;;;;8.02;7.22;;;;;;;;;;5064050;28;20189;-70
2022/11/12 04:35:14;;;;;;;8.07;7.28;;;;;;;;;;5063991;28;20211;-70
2022/11/12 04:37:47;;;;;;;7.63;6.95;;;;;;;;;;5063755;28;20221;-70
2022/11/12 04:45:42;;;;;;;7.63;6.93;;;;;;;;;;5064202;28;20192;-70
2022/11/12 04:48:09;;;;;;;8.05;7.28;;;;;;;;;;5063929;28;20212;-70
2022/11/12 04:50:37;;;;;;;7.72;6.93;;;;;;;;;;5063751;28;20194;-70
2022/11/12 04:53:03;;;;;;;7.20;6.50;;;;;;;;;;5064122;28;20201;-70
2022/11/12 04:55:29;;;;;;;7.97;7.18;;;;;;;;;;5063628;28;20268;-70
2022/11/12 04:57:56;;;;;;;8.07;6.50;;;;;;;;;;5063665;28;20209;-70
2022/11/12 05:00:22;;;;;;;6.97;6.38;;;;;;;;;;5063584;28;20217;-70
2022/11/12 05:02:49;;;;;;;7.40;6.80;;;;;;;;;;5063734;28;20207;-70
2022/11/12 05:05:15;;;;;;;7.22;6.50;;;;;;;;;;5063476;28;20204;-70
2022/11/12 05:07:43;;;;;;;7.05;6.50;;;;;;;;;;5063252;28;20205;-70
2022/11/12 05:10:09;;;;;;;10.88;6.60;;;;;;;;;;5063480;28;20219;-70
2022/11/12 05:12:36;;;;;;;7.15;6.43;;;;;;;;;;5062654;28;20228;-70
2022/11/12 05:15:02;;;;;;;7.25;6.57;;;;;;;;;;5063484;28;20197;-70
2022/11/12 05:17:28;;;;;;;7.63;6.90;;;;;;;;;;5063301;28;20519;-70
2022/11/12 05:19:55;;;;;;;7.90;7.10;;;;;;;;;;5062951;28;20254;-70
2022/11/12 05:22:21;;;;;;;7.95;7.22;;;;;;;;;;5063366;28;20221;-70
2022/11/12 05:24:48;;;;;;;6.80;6.13;;;;;;;;;;5063349;28;20203;-70
2022/11/12 05:27:16;;;;;;;6.70;6.10;;;;;;;;;;5063237;28;20205;-70
2022/11/12 05:29:43;;;;;;;6.18;5.72;;;;;;;;;;5063117;28;20197;-70
2022/11/12 05:32:10;;;;;;;7.13;6.53;;;;;;;;;;5062990;28;20189;-70
2022/11/12 05:34:36;;;;;;;6.35;5.85;;;;;;;;;;5063203;28;20508;-70
2022/11/12 05:37:03;;;;;;;6.50;5.90;;;;;;;;;;5062961;28;20203;-70
2022/11/12 05:39:30;;;;;;;6.47;6.03;;;;;;;;;;5062664;28;20203;-70
2022/11/12 05:41:57;;;;;;;7.63;6.25;;;;;;;;;;5062954;28;20228;-70
2022/11/12 05:44:24;;;;;;;7.10;6.57;;;;;;;;;;5062770;28;20197;-70
2022/11/12 05:46:50;;;;;;;7.20;6.60;;;;;;;;;;5062581;28;20197;-70
2022/11/12 05:49:17;;;;;;;7.13;6.53;;;;;;;;;;5062428;28;20197;-70
2022/11/12 05:51:43;;;;;;;7.50;6.60;;;;;;;;;;5062824;28;20211;-70
2022/11/12 05:54:09;;;;;;;7.00;6.38;;;;;;;;;;5062639;28;20204;-70
2022/11/12 05:56:36;;;;;;;7.80;7.05;;;;;;;;;;5062665;28;20478;-70
2022/11/12 05:59:05;;;;;;;6.72;6.00;;;;;;;;;;5062732;28;20205;-70
2022/11/12 06:01:31;;;;;;;7.68;6.97;;;;;;;;;;5062221;28;20243;-70
2022/11/12 06:03:57;;;;;;;7.68;6.97;;;;;;;;;;5062815;28;20197;-70
2022/11/12 06:06:24;;;;;;;17.15;6.75;;;;;;;;;;5062427;28;20536;-72
2022/11/12 06:08:51;;;;;;;8.13;6.93;;;;;;;;;;5062319;28;20383;-72
2022/11/12 06:11:17;;;;;;;9.00;6.10;;;;;;;;;;5062285;28;20511;-72
2022/11/12 06:13:43;;;;;;;7.97;6.20;;;;;;;;;;5062426;28;20197;-72
2022/11/12 06:16:11;;;;;;;7.05;6.38;;;;;;;;;;5062020;28;20197;-72
2022/11/12 06:18:37;;;;;;;6.90;5.97;;;;;;;;;;5062078;28;20227;-72
2022/11/12 06:21:21;;;;;;;6.75;6.15;;;;;;;;;;5062246;28;20221;-72
2022/11/12 06:23:48;;;;;;;6.82;6.32;;;;;;;;;;5062145;28;20196;-72
2022/11/12 06:26:14;;;;;;;7.97;6.32;;;;;;;;;;5062061;28;20205;-72
2022/11/12 06:28:41;;;;;;;6.63;6.10;;;;;;;;;;5061635;28;20560;-72
2022/11/12 06:31:07;;;;;;;6.55;5.93;;;;;;;;;;5062128;28;20197;-72
2022/11/12 06:33:35;;;;;;;9.77;7.07;;;;;;;;;;5062080;28;20233;-72
2022/11/12 06:36:02;;;;;;;8.25;6.63;;;;;;;;;;5062059;28;20274;-72
2022/11/12 06:38:29;;;;;;;7.20;6.60;;;;;;;;;;5061657;28;20205;-72
2022/11/12 06:40:56;;;;;;;7.35;6.65;;;;;;;;;;5061824;28;20213;-72
2022/11/12 06:43:22;;;;;;;8.43;7.38;;;;;;;;;;5062303;28;20449;-72
2022/11/12 06:45:48;;;;;;;6.90;6.30;;;;;;;;;;5062357;28;20197;-72
2022/11/12 06:48:15;;;;;;;11.60;7.28;;;;;;;;;;5061715;28;20501;-72
2022/11/12 06:50:42;;;;;;;7.57;6.88;;;;;;;;;;5061812;28;20197;-72
2022/11/12 06:53:08;;;;;;;10.50;6.63;;;;;;;;;;5061731;28;20203;-72
2022/11/12 06:55:35;;;;;;;8.07;7.22;;;;;;;;;;5061356;28;20268;-72
2022/11/12 06:58:01;;;;;;;7.68;6.90;;;;;;;;;;5061233;28;20205;-72
2022/11/12 07:00:27;;;;;;;8.13;7.25;;;;;;;;;;5061406;28;20205;-72
2022/11/12 07:02:54;;;;;;;9.30;7.03;;;;;;;;;;5061435;28;20550;-72
2022/11/12 07:05:20;;;;;;;7.18;6.47;;;;;;;;;;5061499;28;20199;-72
2022/11/12 07:07:47;;;;;;;7.03;6.32;;;;;;;;;;5061104;28;20232;-72
2022/11/12 07:10:14;;;;;;;8.02;6.90;;;;;;;;;;5061171;28;20201;-72
2022/11/12 07:12:40;;;;;;;8.02;7.13;;;;;;;;;;5061579;28;20193;-72
2022/11/12 07:15:06;;;;;;;7.95;6.85;;;;;;;;;;5061542;28;20211;-72
2022/11/12 07:17:33;;;;;;;7.82;7.03;;;;;;;;;;5061375;28;20203;-72
2022/11/12 07:19:59;;;;;;;6.47;5.88;;;;;;;;;;5061037;28;20221;-72
2022/11/12 07:22:26;;;;;;;10.13;7.20;;;;;;;;;;5061270;28;20259;-72
2022/11/12 07:24:53;;;;;;;8.02;7.32;;;;;;;;;;5061036;28;20197;-72
2022/11/12 07:27:20;;;;;;;8.13;7.05;;;;;;;;;;5061065;28;20396;-72
2022/11/12 07:29:46;;;;;;;8.15;7.35;;;;;;;;;;5061231;28;20204;-72
2022/11/12 07:32:12;;;;;;;7.95;7.07;;;;;;;;;;5061254;28;20193;-72
2022/11/12 07:34:39;;;;;;;7.60;6.80;;;;;;;;;;5062616;28;20211;-72
2022/11/12 07:37:05;;;;;;;6.70;6.10;;;;;;;;;;5064959;28;20228;-72
2022/11/12 07:39:31;;;;;;;7.05;6.43;;;;;;;;;;5064799;28;20508;-72
2022/11/12 07:41:59;;;;;;;6.07;5.63;;;;;;;;;;5065196;28;20235;-72
2022/11/12 07:44:25;;;;;;;6.25;5.85;;;;;;;;;;5065076;28;20228;-72
2022/11/12 07:46:51;;;;;;;6.40;5.85;;;;;;;;;;5065071;28;20422;-72
2022/11/12 07:49:18;;;;;;;6.90;6.30;;;;;;;;;;5064833;28;20204;-72
2022/11/12 07:51:44;;;;;;;6.28;5.80;;;;;;;;;;5064942;28;20418;-72
2022/11/12 07:54:10;;;;;;;6.30;5.75;;;;;;;;;;5065021;28;20205;-72
2022/11/12 07:56:36;;;;;;;6.35;5.85;;;;;;;;;;5065059;28;20197;-72
2022/11/12 07:59:04;;;;;;;6.85;6.40;;;;;;;;;;5064889;28;20197;-72
2022/11/12 08:01:31;;;;;;;7.30;6.70;;;;;;;;;;5064719;28;20532;-71
2022/11/12 08:03:58;;;;;;;7.57;6.93;;;;;;;;;;5064842;28;20189;-71
2022/11/12 08:06:24;;;;;;;7.30;6.63;;;;;;;;;;5064604;28;20408;-71
2022/11/12 08:08:51;;;;;;;6.78;6.28;;;;;;;;;;5064613;28;20197;-71
2022/11/12 08:11:17;;;;;;;6.47;5.97;;;;;;;;;;5064886;28;20193;-71
2022/11/12 08:13:44;;;;;;;6.35;5.85;;;;;;;;;;5064629;28;20204;-71
2022/11/12 08:16:11;;;;;;;6.53;6.03;;;;;;;;;;5064538;28;20197;-71
2022/11/12 08:18:38;;;;;;;6.40;5.90;;;;;;;;;;5064017;28;20207;-71
2022/11/12 08:21:05;;;;;;;6.60;5.97;;;;;;;;;;5064267;28;20267;-72
2022/11/12 08:23:31;;;;;;;6.10;5.68;;;;;;;;;;5064413;28;20414;-72
2022/11/12 08:25:58;;;;;;;6.20;5.80;;;;;;;;;;5064476;28;20212;-72
2022/11/12 08:28:25;;;;;;;7.07;6.50;;;;;;;;;;5064131;28;20217;-72
2022/11/12 08:30:51;;;;;;;7.18;6.57;;;;;;;;;;5064257;28;20197;-72
2022/11/12 08:33:19;;;;;;;7.15;6.55;;;;;;;;;;5064209;28;20367;-72
2022/11/12 08:35:45;;;;;;;7.10;6.55;;;;;;;;;;5064043;28;20203;-71
2022/11/12 08:38:12;;;;;;;7.18;6.57;;;;;;;;;;5063975;28;20205;-71
2022/11/12 08:40:39;;;;;;;6.70;6.20;;;;;;;;;;5063976;28;20550;-71
2022/11/12 08:43:06;;;;;;;6.72;6.22;;;;;;;;;;5064066;28;20409;-71
2022/11/12 08:45:33;;;;;;;6.68;6.18;;;;;;;;;;5063112;28;20212;-71
2022/11/12 08:48:00;;;;;;;7.35;6.75;;;;;;;;;;5063450;28;20389;-72
2022/11/12 08:50:28;;;;;;;6.72;6.22;;;;;;;;;;5063774;28;20197;-72
2022/11/12 08:52:58;;;;;;;6.75;6.15;;;;;;;;;;5063896;28;20193;-72
2022/11/12 08:55:25;;;;;;;7.15;6.47;;;;;;;;;;5064087;28;20193;-72
2022/11/12 08:57:51;;;;;;;6.82;6.32;;;;;;;;;;5063772;28;20201;-72
2022/11/12 09:00:18;;;;;;;8.57;7.03;;;;;;;;;;5064015;28;20205;-72
2022/11/12 09:02:44;;;;;;;6.20;5.82;;;;;;;;;;5063672;28;20414;-72
2022/11/12 09:05:10;;;;;;;6.43;5.95;;;;;;;;;;5064130;28;20204;-72
2022/11/12 09:07:38;;;;;;;7.07;6.43;;;;;;;;;;5063810;28;20197;-72
2022/11/12 09:10:05;;;;;;;7.35;6.65;;;;;;;;;;5063953;28;20207;-72
2022/11/12 09:12:31;;;;;;;7.25;6.75;;;;;;;;;;5063621;28;20193;-72
2022/11/12 09:14:57;;;;;;;7.47;6.88;;;;;;;;;;5063626;28;20385;-72
2022/11/12 09:17:24;;;;;;;8.52;7.72;;;;;;;;;;5063366;28;20204;-72
2022/11/12 09:19:50;;;;;;;8.40;7.45;;;;;;;;;;5063272;28;20402;-72
2022/11/12 09:22:16;;;;;;;8.23;7.50;;;;;;;;;;5063512;28;20221;-72
2022/11/12 09:24:44;;;;;;;7.68;7.07;;;;;;;;;;5063651;28;20197;-72
2022/11/12 09:27:10;;;;;;;7.10;6.60;;;;;;;;;;5063414;28;20272;-72
2022/11/12 09:29:36;;;;;;;7.55;6.80;;;;;;;;;;5063072;28;20204;-72
2022/11/12 09:32:03;;;;;;;7.18;6.68;;;;;;;;;;5063133;28;20501;-73
2022/11/12 09:34:29;;;;;;;8.93;7.28;;;;;;;;;;5053956;28;20215;-72
2022/11/12 09:36:55;;;;;;;8.30;7.68;;;;;;;;;;5060277;28;20423;-72
2022/11/12 09:39:21;;;;;;;9.48;7.75;;;;;;;;;;5049071;28;20205;-72
2022/11/12 09:41:49;;;;;;;8.07;7.30;;;;;;;;;;5051636;28;20228;-72
2022/11/12 09:44:16;;;;;;;8.95;8.13;;;;;;;;;;5049368;28;20388;-73
2022/11/12 09:46:45;;;;;;;8.68;7.90;;;;;;;;;;5057129;28;20205;-73
2022/11/12 09:49:14;;;;;;;7.38;6.78;;;;;;;;;;5060404;28;20209;-73
2022/11/12 09:51:43;;;;;;;8.73;8.02;;;;;;;;;;5060417;28;20276;-72
2022/11/12 09:54:17;;;;;;;11.38;10.18;;;;;;;;;;5060455;28;20207;-72
2022/11/12 09:56:44;;;;;;;8.75;7.93;;;;;;;;;;5059792;28;20500;-72
2022/11/12 09:59:12;;;;;;;8.70;7.90;;;;;;;;;;5060033;28;20209;-72
2022/11/12 10:01:43;;;;;;;13.65;8.70;;;;;;;;;;5061886;28;20213;-73
2022/11/12 10:04:21;;;;;;;8.90;8.10;;;;;;;;;;5062854;28;20197;-72
2022/11/12 10:06:50;;;;;;;9.50;8.30;;;;;;;;;;5062789;28;20504;-72
2022/11/12 10:09:19;;;;;;;8.95;8.15;;;;;;;;;;5062319;28;20204;-72
2022/11/12 10:14:48;;;;;;;9.38;7.57;;;;;;;;;;5062602;28;20519;-72
2022/11/12 10:17:16;;;;;;;9.10;8.38;;;;;;;;;;5062564;28;20409;-72
2022/11/12 10:19:49;;;;;;;8.95;8.00;;;;;;;;;;5062078;28;20436;-72
2022/11/12 10:22:23;;;;;;;8.45;7.75;;;;;;;;;;5062504;28;20220;-72
2022/11/12 10:24:49;;;;;;;9.35;8.40;;;;;;;;;;5062474;28;20197;-73
2022/11/12 10:27:17;;;;;;;9.00;8.20;;;;;;;;;;5062308;28;20500;-72
2022/11/12 10:29:49;;;;;;;9.32;8.43;;;;;;;;;;5062044;28;20272;-72
2022/11/12 10:32:16;;;;;;;9.02;8.23;;;;;;;;;;5062431;28;20193;-72
2022/11/12 10:34:42;;;;;;;8.32;7.47;;;;;;;;;;5062445;28;20201;-72
2022/11/12 10:37:12;;;;;;;8.43;7.72;;;;;;;;;;5062277;28;20203;-73
2022/11/12 10:39:39;;;;;;;9.75;7.65;;;;;;;;;;5061886;28;20224;-73
2022/11/12 10:42:07;;;;;;;8.02;7.22;;;;;;;;;;5062098;28;20220;-73
2022/11/12 10:44:33;;;;;;;9.02;8.15;;;;;;;;;;5061833;28;20203;-73
2022/11/12 10:47:21;;;;;;;8.20;7.45;;;;;;;;;;5061927;28;20197;-73
2022/11/12 10:49:59;;;;;;;10.90;9.90;;;;;;;;;;5061595;28;20192;-73
2022/11/12 10:52:25;;;;;;;10.00;9.05;;;;;;;;;;5061682;28;20267;-73
2022/11/12 10:55:02;;;;;;;11.25;10.07;;;;;;;;;;5060921;28;20201;-72
2022/11/12 10:57:29;;;;;;;15.23;12.32;;;;;;;;;;5061845;28;20193;-72
2022/11/12 11:00:06;;;;;;;9.77;8.35;;;;;;;;;;5061813;28;20211;-72
2022/11/12 11:02:34;;;;;;;10.23;9.07;;;;;;;;;;5061912;28;20228;-72
2022/11/12 11:05:00;;;;;;;9.10;7.93;;;;;;;;;;5061817;28;20205;-72
2022/11/12 11:07:26;;;;;;;7.82;7.22;;;;;;;;;;5061961;28;20209;-72
2022/11/12 11:09:54;;;;;;;11.70;10.60;;;;;;;;;;5063411;28;20203;-72
2022/11/12 11:12:24;;;;;;;7.18;6.63;;;;;;;;;;5065899;28;20200;-72
2022/11/12 11:15:04;;;;;;;7.40;6.80;;;;;;;;;;5066152;28;20210;-72
2022/11/12 11:17:31;;;;;;;8.68;7.72;;;;;;;;;;5065970;28;20208;-72
2022/11/12 11:19:58;;;;;;;7.40;6.70;;;;;;;;;;5065703;28;20211;-72
2022/11/12 11:22:36;;;;;;;6.72;6.20;;;;;;;;;;5066043;28;20217;-72
2022/11/12 11:25:16;;;;;;;7.18;6.53;;;;;;;;;;5065921;28;20269;-72
2022/11/12 11:27:49;;;;;;;7.53;6.93;;;;;;;;;;5065399;28;20227;-72
2022/11/12 11:30:17;;;;;;;6.30;5.85;;;;;;;;;;5065765;28;20197;-72
2022/11/12 11:32:51;;;;;;;6.30;5.90;;;;;;;;;;5065607;28;20193;-72
2022/11/12 11:35:24;;;;;;;6.68;6.18;;;;;;;;;;5065862;28;20203;-72
2022/11/12 11:37:57;;;;;;;6.45;5.95;;;;;;;;;;5065594;28;20205;-72
2022/11/12 11:40:25;;;;;;;7.03;6.43;;;;;;;;;;5065647;28;20493;-72
2022/11/12 11:42:56;;;;;;;6.93;6.35;;;;;;;;;;5065370;28;20224;-72
2022/11/12 11:45:25;;;;;;;9.50;8.70;;;;;;;;;;5065358;28;20280;-72
2022/11/12 11:47:53;;;;;;;7.28;6.68;;;;;;;;;;5064995;28;20197;-72
2022/11/12 11:50:26;;;;;;;6.25;5.85;;;;;;;;;;5065314;28;20208;-72
2022/11/12 11:52:58;;;;;;;7.15;6.45;;;;;;;;;;5065191;28;20194;-72
2022/11/12 11:55:29;;;;;;;6.45;5.95;;;;;;;;;;5065231;28;20197;-72
2022/11/12 11:58:00;;;;;;;5.68;5.28;;;;;;;;;;5065085;28;20233;-72
2022/11/12 12:00:30;;;;;;;7.20;6.50;;;;;;;;;;5065395;28;20217;-72
2022/11/12 12:03:08;;;;;;;6.82;6.22;;;;;;;;;;5065201;28;20247;-72
2022/11/12 12:05:40;;;;;;;5.95;5.45;;;;;;;;;;5065076;28;20224;-72
2022/11/12 12:08:08;;;;;;;5.70;5.20;;;;;;;;;;5064796;28;20327;-72
2022/11/12 12:10:41;;;;;;;6.55;5.70;;;;;;;;;;5065446;28;20388;-72
2022/11/12 12:13:12;;;;;;;5.78;5.38;;;;;;;;;;5065038;28;20193;-72
2022/11/12 12:15:45;;;;;;;5.85;5.45;;;;;;;;;;5064937;28;20197;-72
2022/11/12 12:18:16;;;;;;;5.70;5.32;;;;;;;;;;5064631;28;20201;-72
2022/11/12 12:20:46;;;;;;;6.20;5.70;;;;;;;;;;5064367;28;20197;-73
2022/11/12 12:23:16;;;;;;;6.20;5.80;;;;;;;;;;5064765;28;20224;-73
2022/11/12 12:25:44;;;;;;;6.20;5.70;;;;;;;;;;5064805;28;20226;-73
2022/11/12 12:28:14;;;;;;;6.25;5.65;;;;;;;;;;5064421;28;20217;-73
2022/11/12 12:30:42;;;;;;;6.22;5.82;;;;;;;;;;5064548;28;20517;-73
2022/11/12 12:33:15;;;;;;;6.32;5.82;;;;;;;;;;5064332;28;20199;-73
2022/11/12 12:35:51;;;;;;;6.53;6.03;;;;;;;;;;5064634;28;20201;-72
2022/11/12 12:38:21;;;;;;;6.45;5.95;;;;;;;;;;5064456;28;20197;-72
2022/11/12 12:40:50;;;;;;;7.00;6.10;;;;;;;;;;5064511;28;20790;-72
2022/11/12 12:43:20;;;;;;;6.13;5.70;;;;;;;;;;5064232;28;20217;-72
2022/11/12 12:45:46;;;;;;;6.80;6.15;;;;;;;;;;5064078;28;20408;-72
2022/11/12 12:48:15;;;;;;;7.35;6.47;;;;;;;;;;5064005;28;20204;-72
2022/11/12 12:50:42;;;;;;;7.10;6.43;;;;;;;;;;5064241;28;20488;-72
2022/11/12 12:53:17;;;;;;;6.85;6.20;;;;;;;;;;5064132;28;20227;-72
2022/11/12 12:55:44;;;;;;;7.07;6.47;;;;;;;;;;5064159;28;20203;-72
2022/11/12 12:58:18;;;;;;;6.65;6.15;;;;;;;;;;5063671;28;20201;-73
2022/11/12 13:00:49;;;;;;;6.70;6.20;;;;;;;;;;5063959;28;20189;-73
2022/11/12 13:03:30;;;;;;;7.15;6.50;;;;;;;;;;5064235;28;20217;-73
2022/11/12 13:06:05;;;;;;;7.13;6.63;;;;;;;;;;5063635;28;20196;-73
2022/11/12 13:08:35;;;;;;;6.93;6.32;;;;;;;;;;5063573;28;20422;-73
2022/11/12 13:11:01;;;;;;;6.90;6.35;;;;;;;;;;5064047;28;20197;-73
2022/11/12 13:13:34;;;;;;;7.60;6.97;;;;;;;;;;5063729;28;20215;-73
2022/11/12 13:16:01;;;;;;;7.07;6.32;;;;;;;;;;5063602;28;20545;-73
2022/11/12 13:18:46;;;;;;;7.30;6.53;;;;;;;;;;5063140;28;20211;-73
2022/11/12 13:21:13;;;;;;;7.10;6.50;;;;;;;;;;5063314;28;20220;-73
2022/11/12 13:26:48;;;;;;;9.13;7.03;;;;;;;;;;5062993;28;20250;-73
2022/11/12 13:29:18;;;;;;;7.53;6.82;;;;;;;;;;5062806;28;20262;-72
2022/11/12 13:31:44;;;;;;;7.15;6.55;;;;;;;;;;5062747;28;20197;-72
2022/11/12 13:34:18;;;;;;;7.95;7.22;;;;;;;;;;5063433;28;20194;-72
2022/11/12 13:36:54;;;;;;;7.90;7.20;;;;;;;;;;5063260;28;20197;-72
2022/11/12 13:39:22;;;;;;;7.75;7.05;;;;;;;;;;5062963;28;20415;-72
2022/11/12 13:44:39;;;;;;;6.78;6.25;;;;;;;;;;5062975;28;20248;-72
2022/11/12 13:47:05;;;;;;;7.47;6.75;;;;;;;;;;5063088;28;20197;-72
2022/11/12 13:49:32;;;;;;;7.25;6.55;;;;;;;;;;5062749;28;20201;-72
2022/11/12 13:51:59;;;;;;;6.55;6.05;;;;;;;;;;5063245;28;20197;-72
2022/11/12 13:54:34;;;;;;;7.80;7.10;;;;;;;;;;5062730;28;20200;-72
2022/11/12 13:57:25;;;;;;;8.13;7.32;;;;;;;;;;5062923;28;20197;-72
2022/11/12 14:00:07;;;;;;;7.93;7.22;;;;;;;;;;5062514;28;20196;-72
2022/11/12 14:02:33;;;;;;;8.52;7.63;;;;;;;;;;5062434;28;20333;-72
2022/11/12 14:05:00;;;;;;;8.38;7.38;;;;;;;;;;5062493;28;20204;-72
2022/11/12 14:07:35;;;;;;;8.00;7.38;;;;;;;;;;5062737;28;20204;-72
2022/11/12 14:10:05;;;;;;;7.20;6.60;;;;;;;;;;5062532;28;20196;-72
2022/11/12 14:12:42;;;;;;;7.10;6.43;;;;;;;;;;5062422;28;20199;-72
2022/11/12 14:15:20;;;;;;;9.50;7.60;;;;;;;;;;5062321;28;20209;-72
2022/11/12 14:17:52;;;;;;;9.00;7.68;;;;;;;;;;5062348;28;20196;-72
2022/11/12 14:20:24;;;;;;;11.00;7.22;;;;;;;;;;5062224;28;20232;-72
2022/11/12 14:22:50;;;;;;;9.32;7.47;;;;;;;;;;5062375;28;20496;-72
2022/11/12 14:25:19;;;;;;;7.93;7.18;;;;;;;;;;5062453;28;20362;-72
2022/11/12 14:27:46;;;;;;;8.02;7.20;;;;;;;;;;5061686;28;20223;-72
2022/11/12 14:30:14;;;;;;;8.82;7.25;;;;;;;;;;5062196;28;20204;-72
2022/11/12 14:32:42;;;;;;;10.45;7.07;;;;;;;;;;5062196;28;20197;-72
2022/11/12 14:35:25;;;;;;;7.97;7.03;;;;;;;;;;5062736;28;20375;-72
2022/11/12 14:37:54;;;;;;;8.60;7.10;;;;;;;;;;5062134;28;20250;-72
2022/11/12 14:40:24;;;;;;;12.50;8.93;;;;;;;;;;5062136;28;20220;-72
2022/11/12 14:42:51;;;;;;;10.00;9.00;;;;;;;;;;5062219;28;20201;-72
2022/11/12 14:45:19;;;;;;;12.65;8.95;;;;;;;;;;5062155;28;20399;-72
2022/11/12 14:47:46;;;;;;;8.82;8.02;;;;;;;;;;5061852;28;20197;-72
2022/11/12 14:50:16;;;;;;;8.88;8.05;;;;;;;;;;5062031;28;20551;-72
2022/11/12 14:52:44;;;;;;;8.98;8.02;;;;;;;;;;5061896;28;20496;-72
2022/11/12 14:55:12;;;;;;;8.35;7.65;;;;;;;;;;5061915;28;20197;-72
2022/11/12 14:57:40;;;;;;;8.20;7.40;;;;;;;;;;5061964;28;20228;-72
2022/11/12 15:00:17;;;;;;;8.50;7.28;;;;;;;;;;5062085;28;20271;-72
2022/11/12 15:02:44;;;;;;;7.90;7.10;;;;;;;;;;5061842;28;20197;-72
2022/11/12 15:05:13;;;;;;;7.50;6.90;;;;;;;;;;5061780;28;20478;-72
2022/11/12 15:07:50;;;;;;;7.72;6.80;;;;;;;;;;5061624;28;20201;-72
2022/11/12 15:10:38;;;;;;;7.22;6.63;;;;;;;;;;5062169;28;20197;-72